Home   Weather   Germany   Salzgitter   Past weeks
Flag for Germany

Past Weather in Salzgitter, Lower Saxony, Germany — Yesterday and Last 2 Weeks

Currently: 66 °F. Mild. (Weather station: Braunschweig Wolfsburg, Germany). See more current weather

Past Weather in Salzgitter — Graph

°F

Salzgitter Temperature Yesterday

Maximum temperature yesterday: 86 °F (at 3:20 pm)
Minimum temperature yesterday: 55 °F (at 5:50 am)
Average temperature yesterday: 74 °F

High & Low Weather Summary for the Past Weeks

 TemperatureHumidityPressure
High99 °F (Aug 4, 3:50 pm)100% (Jul 30, 5:50 am)30.36 "Hg (Jul 30, 5:50 am)
Low45 °F (Aug 7, 5:50 am)22% (Aug 4, 2:20 pm)29.86 "Hg (Aug 4, 3:20 pm)
Average69 °F62%30.12 "Hg
* Reported Jul 29 10:20 pm — Aug 13 10:20 pm, Salzgitter. Weather by CustomWeather, © 2022

Note: Actual official high and low records may vary slightly from our data, if they occured in-between our weather recording intervals... More about our weather records

Salzgitter Weather History for the Previous 24 Hours

Scroll right to see more
 ConditionsComfort  
Time TempWeatherWind HumidityBarometerVisibility
10:20 pm
Sat, Aug 13
66 °FPassing clouds.2 mph83%30.01 "HgN/A
9:50 pm70 °FPassing clouds.3 mph73%30.01 "HgN/A
9:20 pm72 °FPassing clouds.3 mph69%30.01 "HgN/A
8:50 pm72 °FPassing clouds.2 mph69%30.01 "HgN/A
8:20 pm75 °FPassing clouds.3 mph61%30.01 "HgN/A
7:50 pm75 °FSunny.5 mph61%30.01 "Hg10 mi
7:20 pm73 °FPassing clouds.3 mph69%30.01 "HgN/A
6:50 pm73 °FPassing clouds.6 mph69%30.01 "HgN/A
6:20 pm77 °FSunny.16 mph54%30.04 "Hg10 mi
5:50 pm82 °FSunny.7 mph42%30.04 "Hg10 mi
5:20 pm82 °FPassing clouds.8 mph45%30.04 "HgN/A
4:50 pm81 °FSunny.12 mph45%30.04 "Hg10 mi
4:20 pm81 °FPassing clouds.9 mph45%30.04 "HgN/A
3:50 pm82 °FSunny.12 mph42%30.04 "Hg10 mi
3:20 pm86 °FPassing clouds.14 mph38%30.04 "HgN/A
2:20 pm84 °FPassing clouds.12 mph40%30.04 "HgN/A
1:50 pm82 °FPassing clouds.12 mph42%30.07 "HgN/A
1:20 pm84 °FPassing clouds.7 mph40%30.07 "HgN/A
12:50 pm82 °FPassing clouds.9 mph40%30.07 "HgN/A
12:20 pm82 °FPassing clouds.10 mph42%30.07 "HgN/A
11:20 am81 °FPassing clouds.9 mph42%30.09 "HgN/A
10:50 am81 °FPassing clouds.6 mph42%30.09 "HgN/A
10:20 am77 °FPassing clouds.6 mph47%30.09 "HgN/A
9:20 am72 °FPassing clouds.5 mph53%30.09 "HgN/A
8:50 am70 °FSunny.6 mph53%30.09 "Hg10 mi
8:20 am68 °FMild.5 mph56%30.09 "HgN/A
7:50 am64 °FMild.3 mph64%30.09 "HgN/A
7:20 am63 °FMild.No wind77%30.09 "HgN/A
6:50 am59 °FCool.1 mph72%30.09 "HgN/A
6:20 am59 °FCool.2 mph72%30.09 "HgN/A
5:50 am59 °FCool.2 mph72%30.09 "HgN/A
5:20 am61 °FCool.3 mph68%30.09 "HgN/A
4:50 am57 °FCool.3 mph77%30.09 "HgN/A
4:20 am57 °FPassing clouds.3 mph77%30.09 "HgN/A
3:50 am57 °FPassing clouds.3 mph77%30.09 "HgN/A
3:20 am57 °FCool.2 mph77%30.09 "HgN/A
2:50 am57 °FCool.2 mph77%30.09 "HgN/A
1:20 am61 °FCool.3 mph68%30.09 "HgN/A
12:50 am63 °FMild.3 mph64%30.09 "HgN/A
12:20 am63 °FMild.5 mph64%30.12 "HgN/A
11:50 pm
Fri, Aug 12
64 °FMild.3 mph56%30.09 "HgN/A
11:20 pm64 °FMild.3 mph60%30.09 "HgN/A
Weather by CustomWeather, © 2022

See weather overview